Time;durP1;ratioP1;P1;durP2;ratioP2;P2;SDS_P1;SDS_P2;PMS_P1;PMS_P2;Temp;Humidity;BMP_temperature;BMP_pressure;BME280_temperature;BME280_humidity;BME280_pressure;Samples;Min_cycle;Max_cycle;Signal;HPM_P1;HPM_P2
2021/04/12 00:01:39;;;;;;;4.60;2.47;;;;;;;;;;4971872;28;20066;-81
2021/04/12 00:04:08;;;;;;;7.63;3.10;;;;;;;;;;4971768;28;20398;-81
2021/04/12 00:06:53;;;;;;;5.03;2.20;;;;;;;;;;4971633;28;20050;-81
2021/04/12 00:09:30;;;;;;;6.25;2.40;;;;;;;;;;4971868;28;20042;-80
2021/04/12 00:11:58;;;;;;;6.20;2.97;;;;;;;;;;4971760;28;20435;-81
2021/04/12 00:14:28;;;;;;;4.80;2.45;;;;;;;;;;4971689;28;20035;-81
2021/04/12 00:17:04;;;;;;;5.38;2.30;;;;;;;;;;4971613;28;20114;-81
2021/04/12 00:19:35;;;;;;;8.82;2.10;;;;;;;;;;4971751;28;20118;-81
2021/04/12 00:22:01;;;;;;;6.60;3.05;;;;;;;;;;4971686;28;20077;-81
2021/04/12 00:24:29;;;;;;;7.25;2.67;;;;;;;;;;4972774;28;20062;-81
2021/04/12 00:27:02;;;;;;;6.18;2.20;;;;;;;;;;4972451;28;20043;-81
2021/04/12 00:29:52;;;;;;;5.53;2.80;;;;;;;;;;4955508;28;20538;-81
2021/04/12 00:32:33;;;;;;;4.25;2.30;;;;;;;;;;4939996;28;20038;-79
2021/04/12 00:35:02;;;;;;;7.65;2.38;;;;;;;;;;4975254;28;20038;-80
2021/04/12 00:37:37;;;;;;;4.15;2.10;;;;;;;;;;4975985;28;20039;-79
2021/04/12 00:40:29;;;;;;;6.75;2.13;;;;;;;;;;4959030;28;20114;-80
2021/04/12 00:43:16;;;;;;;5.07;2.17;;;;;;;;;;4946534;28;20047;-80
2021/04/12 00:45:47;;;;;;;5.57;2.50;;;;;;;;;;4958733;28;20093;-81
2021/04/12 00:48:32;;;;;;;5.38;2.53;;;;;;;;;;4976036;28;20035;-79
2021/04/12 00:51:03;;;;;;;5.10;2.35;;;;;;;;;;4976044;28;20039;-81
2021/04/12 00:53:45;;;;;;;4.73;2.40;;;;;;;;;;4975852;28;20042;-81
2021/04/12 00:56:13;;;;;;;2.42;1.88;;;;;;;;;;4975592;28;20053;-81
2021/04/12 00:58:56;;;;;;;4.15;2.28;;;;;;;;;;4958704;28;20069;-81
2021/04/12 01:01:22;;;;;;;;;;;;;;;;;;4943158;28;20050;-81
2021/04/12 01:03:51;;;;;;;3.35;2.15;;;;;;;;;;4975788;28;19924;-80
2021/04/12 01:06:33;;;;;;;5.30;2.17;;;;;;;;;;4958551;28;20050;-81
2021/04/12 01:09:14;;;;;;;5.80;2.47;;;;;;;;;;4958555;28;20465;-81
2021/04/12 01:11:59;;;;;;;5.45;2.17;;;;;;;;;;4958405;28;20042;-81
2021/04/12 01:14:45;;;;;;;5.63;2.03;;;;;;;;;;4975450;28;20049;-80
2021/04/12 01:17:20;;;;;;;8.43;2.60;;;;;;;;;;4975313;28;20066;-80
2021/04/12 01:19:49;;;;;;;7.28;2.10;;;;;;;;;;4975387;28;20038;-81
2021/04/12 01:22:34;;;;;;;6.60;2.35;;;;;;;;;;4975366;28;20061;-81
2021/04/12 01:25:09;;;;;;;5.03;2.35;;;;;;;;;;4975293;28;20039;-80
2021/04/12 01:27:34;;;;;;;3.30;2.10;;;;;;;;;;4974809;28;20063;-81
2021/04/12 01:30:19;;;;;;;3.30;2.20;;;;;;;;;;4958005;28;20042;-80
2021/04/12 01:33:04;;;;;;;5.15;2.35;;;;;;;;;;4975211;28;20046;-79
2021/04/12 01:35:40;;;;;;;9.68;3.05;;;;;;;;;;4975036;28;20038;-79
2021/04/12 01:38:15;;;;;;;6.30;2.65;;;;;;;;;;4974946;28;20039;-80
2021/04/12 01:41:00;;;;;;;4.40;2.60;;;;;;;;;;4957875;28;20046;-80
2021/04/12 01:43:30;;;;;;;3.72;2.03;;;;;;;;;;4975067;28;20126;-81
2021/04/12 01:46:06;;;;;;;4.07;2.50;;;;;;;;;;4956639;28;20047;-79
2021/04/12 01:48:45;;;;;;;6.15;2.20;;;;;;;;;;4974827;28;20042;-80
2021/04/12 01:51:14;;;;;;;7.07;2.10;;;;;;;;;;4974815;28;20089;-81
2021/04/12 01:53:42;;;;;;;3.03;2.00;;;;;;;;;;4974736;28;20121;-80
2021/04/12 01:56:27;;;;;;;6.68;2.30;;;;;;;;;;4957484;28;20494;-81
2021/04/12 01:58:59;;;;;;;5.30;2.15;;;;;;;;;;4957280;28;20038;-85
2021/04/12 02:01:33;;;;;;;5.13;2.00;;;;;;;;;;4957528;28;20035;-81
2021/04/12 02:03:59;;;;;;;8.38;2.55;;;;;;;;;;4957522;28;20442;-81
2021/04/12 02:06:49;;;;;;;4.28;2.22;;;;;;;;;;4957117;28;20047;-81
2021/04/12 02:09:21;;;;;;;5.00;2.40;;;;;;;;;;4938413;28;20062;-81
2021/04/12 02:11:51;;;;;;;8.25;2.20;;;;;;;;;;4957313;28;20114;-81
2021/04/12 02:14:36;;;;;;;3.55;1.92;;;;;;;;;;4957315;28;20039;-80
2021/04/12 02:17:06;;;;;;;5.43;2.30;;;;;;;;;;4974214;28;20405;-80
2021/04/12 02:19:34;;;;;;;3.97;2.15;;;;;;;;;;4957106;28;20113;-79
2021/04/12 02:22:19;;;;;;;9.88;3.00;;;;;;;;;;4957179;28;20047;-79
2021/04/12 02:24:57;;;;;;;6.28;2.58;;;;;;;;;;4974221;28;20043;-78
2021/04/12 02:27:35;;;;;;;4.20;2.20;;;;;;;;;;4973908;28;20055;-80
2021/04/12 02:30:21;;;;;;;6.05;2.25;;;;;;;;;;4956953;28;20439;-80
2021/04/12 02:33:02;;;;;;;4.30;2.20;;;;;;;;;;4934841;28;20050;-80
2021/04/12 02:35:32;;;;;;;9.50;2.35;;;;;;;;;;4974085;28;20060;-79
2021/04/12 02:37:58;;;;;;;7.15;2.15;;;;;;;;;;4956829;28;20097;-80
2021/04/12 02:40:36;;;;;;;6.28;2.55;;;;;;;;;;4974006;28;20045;-79
2021/04/12 02:43:18;;;;;;;7.07;2.53;;;;;;;;;;4973855;28;20121;-81
2021/04/12 02:46:02;;;;;;;5.03;2.42;;;;;;;;;;4973852;28;20046;-79
2021/04/12 02:48:39;;;;;;;5.18;2.38;;;;;;;;;;4973912;28;20051;-80
2021/04/12 02:51:11;;;;;;;3.85;2.63;;;;;;;;;;4956645;28;20042;-80
2021/04/12 02:53:41;;;;;;;4.93;2.38;;;;;;;;;;4973710;28;20034;-80
2021/04/12 02:56:46;;;;;;;5.60;2.40;;;;;;;;;;4956412;28;20039;-80
2021/04/12 02:59:30;;;;;;;6.72;2.60;;;;;;;;;;4895209;29;20044;-80
2021/04/12 03:02:12;;;;;;;8.00;2.47;;;;;;;;;;4895406;29;20517;-80
2021/04/12 03:04:47;;;;;;;8.13;2.65;;;;;;;;;;4950319;28;20082;-80
2021/04/12 03:07:18;;;;;;;8.80;2.30;;;;;;;;;;4973474;28;20383;-81
2021/04/12 03:09:55;;;;;;;6.30;2.42;;;;;;;;;;4956264;28;20053;-80
2021/04/12 03:12:40;;;;;;;4.75;1.90;;;;;;;;;;4940427;28;20046;-79
2021/04/12 03:15:06;;;;;;;5.70;2.70;;;;;;;;;;4973407;28;20121;-80
2021/04/12 03:17:52;;;;;;;7.70;2.33;;;;;;;;;;4973295;28;20057;-80
2021/04/12 03:20:38;;;;;;;5.93;2.30;;;;;;;;;;4940255;28;20110;-80
2021/04/12 03:23:10;;;;;;;4.38;2.25;;;;;;;;;;4956274;28;20046;-80
2021/04/12 03:25:54;;;;;;;5.68;2.25;;;;;;;;;;4956408;28;20038;-80
2021/04/12 03:28:26;;;;;;;6.53;2.60;;;;;;;;;;4973031;28;20058;-80
2021/04/12 03:30:54;;;;;;;6.90;2.58;;;;;;;;;;4956033;28;20042;-80
2021/04/12 03:33:26;;;;;;;6.07;2.33;;;;;;;;;;4956195;28;20042;-79
2021/04/12 03:36:10;;;;;;;4.47;2.30;;;;;;;;;;4956006;28;20046;-80
2021/04/12 03:38:38;;;;;;;4.72;2.30;;;;;;;;;;4955996;28;20189;-80
2021/04/12 03:41:13;;;;;;;5.78;2.13;;;;;;;;;;4956097;28;20035;-79
2021/04/12 03:43:51;;;;;;;5.97;2.38;;;;;;;;;;4955867;28;20050;-79
2021/04/12 03:46:36;;;;;;;3.38;2.10;;;;;;;;;;4973047;28;20043;-80
2021/04/12 03:49:21;;;;;;;4.88;2.38;;;;;;;;;;4955791;28;20690;-80
2021/04/12 03:51:50;;;;;;;4.25;2.03;;;;;;;;;;4955747;28;20038;-80
2021/04/12 03:54:33;;;;;;;5.05;2.45;;;;;;;;;;4973034;28;20106;-80
2021/04/12 03:57:19;;;;;;;6.32;2.25;;;;;;;;;;4973152;28;20049;-80
2021/04/12 03:59:51;;;;;;;5.10;2.25;;;;;;;;;;4955933;28;20065;-80
2021/04/12 04:02:37;;;;;;;5.53;2.10;;;;;;;;;;4973016;28;20061;-80
2021/04/12 04:05:03;;;;;;;5.78;2.30;;;;;;;;;;4972968;28;20038;-80
2021/04/12 04:07:29;;;;;;;2.08;1.70;;;;;;;;;;4973164;28;20521;-79
2021/04/12 04:10:14;;;;;;;7.18;2.35;;;;;;;;;;4975458;28;20118;-80
2021/04/12 04:12:58;;;;;;;5.55;2.15;;;;;;;;;;4976683;28;20053;-79
2021/04/12 04:15:27;;;;;;;4.70;2.15;;;;;;;;;;4959238;28;20039;-79
2021/04/12 04:18:07;;;;;;;4.45;2.10;;;;;;;;;;4976403;28;20071;-80
2021/04/12 04:20:43;;;;;;;5.15;2.20;;;;;;;;;;4959399;28;20154;-79
2021/04/12 04:23:15;;;;;;;2.55;1.83;;;;;;;;;;4976385;28;20039;-79
2021/04/12 04:25:56;;;;;;;4.20;1.80;;;;;;;;;;4959328;28;20046;-80
2021/04/12 04:28:31;;;;;;;5.68;2.05;;;;;;;;;;4976181;28;20051;-80
2021/04/12 04:31:25;;;;;;;13.10;2.00;;;;;;;;;;4959658;28;20038;-80
2021/04/12 04:34:17;;;;;;;4.57;1.95;;;;;;;;;;4959021;28;20077;-79
2021/04/12 04:36:46;;;;;;;5.72;1.90;;;;;;;;;;4972725;28;20481;-79
2021/04/12 04:39:28;;;;;;;2.45;1.70;;;;;;;;;;4976041;28;20078;-80
2021/04/12 04:41:57;;;;;;;7.80;2.13;;;;;;;;;;4976069;28;20035;-80
2021/04/12 04:44:23;;;;;;;6.78;2.15;;;;;;;;;;4943010;28;20035;-80
2021/04/12 04:47:07;;;;;;;5.25;1.65;;;;;;;;;;4975910;28;20553;-80
2021/04/12 04:49:42;;;;;;;4.35;2.17;;;;;;;;;;4958696;28;20100;-79
2021/04/12 04:52:14;;;;;;;3.72;1.98;;;;;;;;;;4976084;28;20059;-79
2021/04/12 04:54:43;;;;;;;4.75;1.55;;;;;;;;;;4975944;28;20030;-80
2021/04/12 04:57:19;;;;;;;5.60;1.77;;;;;;;;;;4975767;28;20053;-81
2021/04/12 04:59:55;;;;;;;6.07;1.88;;;;;;;;;;4975749;28;20035;-79
2021/04/12 05:02:21;;;;;;;8.48;2.05;;;;;;;;;;4958733;28;20502;-81
2021/04/12 05:04:50;;;;;;;3.63;1.77;;;;;;;;;;4975661;28;20034;-80
2021/04/12 05:07:28;;;;;;;4.07;1.67;;;;;;;;;;4975601;28;20043;-81
2021/04/12 05:10:07;;;;;;;5.75;1.80;;;;;;;;;;4975611;28;20416;-81
2021/04/12 05:12:43;;;;;;;3.60;1.73;;;;;;;;;;4942523;28;20043;-82
2021/04/12 05:15:28;;;;;;;2.15;1.65;;;;;;;;;;4975621;28;20043;-81
2021/04/12 05:18:14;;;;;;;4.45;1.90;;;;;;;;;;4975384;28;20043;-81
2021/04/12 05:20:52;;;;;;;4.75;1.65;;;;;;;;;;4975193;28;20047;-81
2021/04/12 05:23:31;;;;;;;4.32;1.88;;;;;;;;;;4958133;28;20066;-79
2021/04/12 05:26:20;;;;;;;3.65;1.55;;;;;;;;;;4958090;28;20042;-81
2021/04/12 05:29:04;;;;;;;3.20;1.73;;;;;;;;;;4939252;28;20487;-80
2021/04/12 05:31:40;;;;;;;2.55;1.55;;;;;;;;;;4975360;28;20039;-80
2021/04/12 05:34:24;;;;;;;4.07;1.65;;;;;;;;;;4975243;28;20035;-81
2021/04/12 05:37:04;;;;;;;2.97;1.75;;;;;;;;;;4974965;28;20066;-81
2021/04/12 05:39:42;;;;;;;4.18;1.70;;;;;;;;;;4958255;28;20042;-80
2021/04/12 05:42:08;;;;;;;4.82;1.90;;;;;;;;;;4975003;28;20046;-80
2021/04/12 05:44:39;;;;;;;5.10;1.85;;;;;;;;;;4975149;28;20039;-79
2021/04/12 05:47:26;;;;;;;3.67;1.73;;;;;;;;;;4975157;28;20121;-81
2021/04/12 05:50:13;;;;;;;3.92;1.88;;;;;;;;;;4957655;28;20355;-81
2021/04/12 05:52:39;;;;;;;1.90;1.60;;;;;;;;;;4957988;28;20043;-80
2021/04/12 05:55:08;;;;;;;3.50;1.83;;;;;;;;;;4974922;28;20041;-81
2021/04/12 05:57:38;;;;;;;3.53;1.70;;;;;;;;;;4957680;28;20348;-81
2021/04/12 06:00:13;;;;;;;4.68;1.83;;;;;;;;;;4974820;28;20039;-81
2021/04/12 06:02:39;;;;;;;2.90;1.55;;;;;;;;;;4974635;28;20066;-82
2021/04/12 06:05:18;;;;;;;1.98;1.10;;;;;;;;;;4974704;28;20419;-82
2021/04/12 06:07:51;;;;;;;2.90;1.45;;;;;;;;;;4974660;28;20139;-82
2021/04/12 06:10:17;;;;;;;;;;;;;;;;;;4957830;28;20039;-81
2021/04/12 06:13:02;;;;;;;2.45;1.23;;;;;;;;;;4974398;28;19925;-82
2021/04/12 06:15:36;;;;;;;2.38;1.20;;;;;;;;;;4957225;28;20039;-80
2021/04/12 06:18:21;;;;;;;3.90;1.13;;;;;;;;;;4974356;28;20097;-82
2021/04/12 06:20:47;;;;;;;2.67;0.90;;;;;;;;;;4974291;28;20042;-81
2021/04/12 06:23:18;;;;;;;3.03;1.00;;;;;;;;;;4974653;28;20049;-80
2021/04/12 06:25:47;;;;;;;1.67;1.10;;;;;;;;;;4974144;28;20038;-80
2021/04/12 06:28:22;;;;;;;1.27;0.80;;;;;;;;;;4974097;28;20063;-81
2021/04/12 06:30:54;;;;;;;2.80;1.00;;;;;;;;;;4974059;28;20154;-81
2021/04/12 06:33:20;;;;;;;1.42;0.90;;;;;;;;;;4974133;28;20398;-80
2021/04/12 06:35:46;;;;;;;3.67;1.48;;;;;;;;;;4973803;28;20117;-80
2021/04/12 06:38:23;;;;;;;1.70;0.98;;;;;;;;;;4974073;28;20054;-80
2021/04/12 06:41:08;;;;;;;3.35;0.98;;;;;;;;;;4940926;28;20090;-80
2021/04/12 06:43:51;;;;;;;1.05;0.93;;;;;;;;;;4956633;28;20402;-80
2021/04/12 06:46:36;;;;;;;3.28;1.00;;;;;;;;;;4956606;28;20123;-81
2021/04/12 06:49:20;;;;;;;2.85;1.13;;;;;;;;;;4974066;28;20053;-80
2021/04/12 06:52:05;;;;;;;3.10;1.20;;;;;;;;;;4973866;28;20042;-81
2021/04/12 06:54:43;;;;;;;1.80;0.75;;;;;;;;;;4973666;28;20470;-82
2021/04/12 06:57:29;;;;;;;0.88;0.85;;;;;;;;;;4973819;28;20042;-82
2021/04/12 06:59:58;;;;;;;2.63;0.85;;;;;;;;;;4973683;28;20053;-85
2021/04/12 07:02:43;;;;;;;1.92;1.05;;;;;;;;;;4973670;28;20043;-84
2021/04/12 07:05:14;;;;;;;4.45;0.95;;;;;;;;;;4956418;28;20509;-84
2021/04/12 07:07:59;;;;;;;2.58;1.02;;;;;;;;;;4956613;28;20042;-82
2021/04/12 07:10:34;;;;;;;2.13;0.93;;;;;;;;;;4956163;28;20046;-85
2021/04/12 07:13:06;;;;;;;5.78;1.00;;;;;;;;;;4956658;28;20549;-83
2021/04/12 07:15:38;;;;;;;6.32;1.10;;;;;;;;;;4973588;28;20066;-83
2021/04/12 07:18:30;;;;;;;3.75;0.95;;;;;;;;;;4973415;28;20042;-81
2021/04/12 07:21:15;;;;;;;1.50;0.90;;;;;;;;;;4956094;28;20035;-81
2021/04/12 07:23:52;;;;;;;1.67;0.70;;;;;;;;;;4973213;28;20039;-83
2021/04/12 07:26:37;;;;;;;2.60;1.10;;;;;;;;;;4955738;28;20047;-82
2021/04/12 07:29:23;;;;;;;2.17;0.65;;;;;;;;;;4973017;28;20131;-83
2021/04/12 07:32:00;;;;;;;3.97;0.93;;;;;;;;;;4933961;28;20054;-82
2021/04/12 07:34:44;;;;;;;1.17;0.90;;;;;;;;;;4955732;28;20042;-82
2021/04/12 07:37:29;;;;;;;1.85;0.82;;;;;;;;;;4955662;28;20047;-84
2021/04/12 07:40:07;;;;;;;1.50;0.95;;;;;;;;;;4972894;28;20479;-82
2021/04/12 07:42:52;;;;;;;2.90;0.80;;;;;;;;;;4972975;28;20118;-82
2021/04/12 07:45:44;;;;;;;1.58;0.90;;;;;;;;;;4976373;28;20137;-82
2021/04/12 07:48:29;;;;;;;3.42;0.73;;;;;;;;;;4943088;28;20061;-81
2021/04/12 07:51:14;;;;;;;4.20;1.17;;;;;;;;;;4977003;28;20074;-82
2021/04/12 07:53:42;;;;;;;2.58;1.10;;;;;;;;;;4977168;28;20043;-82
2021/04/12 07:56:27;;;;;;;1.95;0.95;;;;;;;;;;4976832;28;20038;-82
2021/04/12 07:59:13;;;;;;;2.85;1.17;;;;;;;;;;4976959;28;20367;-83
2021/04/12 08:01:41;;;;;;;6.68;1.20;;;;;;;;;;4959848;28;20035;-82
2021/04/12 08:04:17;;;;;;;4.78;1.05;;;;;;;;;;4943842;28;20058;-82
2021/04/12 08:07:02;;;;;;;3.95;1.10;;;;;;;;;;4959737;28;20042;-82
2021/04/12 08:09:31;;;;;;;4.45;0.85;;;;;;;;;;4976621;28;20093;-82
2021/04/12 08:12:15;;;;;;;1.92;0.70;;;;;;;;;;4976719;28;20471;-81
2021/04/12 08:14:58;;;;;;;10.05;1.23;;;;;;;;;;4976858;28;20077;-82
2021/04/12 08:17:33;;;;;;;5.13;1.10;;;;;;;;;;4959427;28;20049;-82
2021/04/12 08:20:09;;;;;;;2.08;0.80;;;;;;;;;;4959265;28;20093;-82
2021/04/12 08:22:41;;;;;;;3.95;1.13;;;;;;;;;;4976509;28;20117;-82
2021/04/12 08:25:14;;;;;;;5.28;1.02;;;;;;;;;;4976564;28;20054;-82
2021/04/12 08:27:50;;;;;;;2.33;0.90;;;;;;;;;;4944049;28;20055;-82
2021/04/12 08:30:35;;;;;;;5.18;1.23;;;;;;;;;;4975018;28;20039;-82
2021/04/12 08:33:07;;;;;;;4.22;0.93;;;;;;;;;;4976187;28;20147;-82
2021/04/12 08:35:33;;;;;;;2.95;0.90;;;;;;;;;;4959407;28;20054;-81
2021/04/12 08:38:05;;;;;;;3.10;1.00;;;;;;;;;;4976093;28;20104;-82
2021/04/12 08:40:33;;;;;;;4.05;1.00;;;;;;;;;;4959036;28;20058;-82
2021/04/12 08:43:03;;;;;;;2.53;0.85;;;;;;;;;;4976079;28;20050;-81
2021/04/12 08:45:46;;;;;;;3.28;1.00;;;;;;;;;;4976159;28;20141;-80
2021/04/12 08:48:22;;;;;;;5.22;1.00;;;;;;;;;;4974922;28;20062;-80
2021/04/12 08:51:02;;;;;;;3.80;0.98;;;;;;;;;;4976054;28;20031;-80
2021/04/12 08:53:47;;;;;;;3.78;0.82;;;;;;;;;;4974897;28;20081;-79
2021/04/12 08:56:16;;;;;;;4.85;1.25;;;;;;;;;;4974382;28;20490;-80
2021/04/12 08:59:02;;;;;;;2.75;0.82;;;;;;;;;;4975886;28;20039;-80
2021/04/12 09:01:46;;;;;;;4.38;0.93;;;;;;;;;;4975849;28;20070;-80
2021/04/12 09:04:31;;;;;;;2.53;0.77;;;;;;;;;;4975742;28;20043;-79
2021/04/12 09:07:03;;;;;;;4.07;0.80;;;;;;;;;;4975697;28;20047;-80
2021/04/12 09:09:48;;;;;;;1.45;0.70;;;;;;;;;;4975750;28;20402;-80
2021/04/12 09:12:29;;;;;;;1.75;0.70;;;;;;;;;;4975780;28;20047;-82
2021/04/12 09:15:01;;;;;;;3.92;0.70;;;;;;;;;;4975497;28;20054;-83
2021/04/12 09:17:33;;;;;;;3.90;0.75;;;;;;;;;;4974384;28;20067;-81
2021/04/12 09:20:18;;;;;;;1.83;0.60;;;;;;;;;;4974386;28;20112;-82
2021/04/12 09:22:50;;;;;;;3.17;0.70;;;;;;;;;;4959429;28;20502;-82
2021/04/12 09:25:27;;;;;;;4.47;0.50;;;;;;;;;;4954607;28;20118;-84
2021/04/12 09:28:00;;;;;;;2.35;0.60;;;;;;;;;;4970547;28;20440;-82
2021/04/12 09:30:35;;;;;;;2.35;0.60;;;;;;;;;;4953812;28;20095;-81
2021/04/12 09:33:16;;;;;;;0.98;0.50;;;;;;;;;;4970588;28;20035;-81
2021/04/12 09:35:48;;;;;;;3.15;0.80;;;;;;;;;;4955795;29;20182;-82
2021/04/12 09:38:14;;;;;;;;;;;;;;;;;;4955206;28;20045;-82
2021/04/12 09:40:40;;;;;;;1.73;0.55;;;;;;;;;;4954477;29;19918;-83
2021/04/12 09:43:19;;;;;;;1.77;0.50;;;;;;;;;;4955651;29;20376;-82
2021/04/12 09:46:03;;;;;;;4.85;0.70;;;;;;;;;;4955639;29;20031;-81
2021/04/12 09:48:37;;;;;;;2.00;0.50;;;;;;;;;;4955600;29;20494;-81
2021/04/12 09:51:21;;;;;;;0.82;0.40;;;;;;;;;;4957352;28;20477;-82
2021/04/12 09:54:06;;;;;;;0.30;0.30;;;;;;;;;;4973466;28;20351;-83
2021/04/12 09:56:41;;;;;;;2.03;0.40;;;;;;;;;;4973592;28;20534;-81
2021/04/12 09:59:26;;;;;;;0.55;0.32;;;;;;;;;;4974590;28;20097;-84
2021/04/12 10:02:11;;;;;;;2.88;0.45;;;;;;;;;;4973335;28;20046;-83
2021/04/12 10:04:51;;;;;;;0.73;0.30;;;;;;;;;;4974558;28;20039;-79
2021/04/12 10:07:20;;;;;;;0.70;0.40;;;;;;;;;;4972552;28;20430;-81
2021/04/12 10:09:47;;;;;;;4.78;0.43;;;;;;;;;;4974601;28;20536;-81
2021/04/12 10:12:21;;;;;;;1.80;0.50;;;;;;;;;;4957222;28;20089;-80
2021/04/12 10:15:05;;;;;;;2.63;0.50;;;;;;;;;;4973093;28;20050;-81
2021/04/12 10:17:50;;;;;;;2.15;0.60;;;;;;;;;;4974206;28;20497;-81
2021/04/12 10:20:25;;;;;;;2.15;0.60;;;;;;;;;;4974334;28;20043;-81
2021/04/12 10:22:52;;;;;;;2.42;0.60;;;;;;;;;;4972932;28;20393;-81
2021/04/12 10:25:39;;;;;;;2.15;0.50;;;;;;;;;;4971245;28;20172;-82
2021/04/12 10:28:15;;;;;;;2.47;0.50;;;;;;;;;;4969193;28;20059;-80
2021/04/12 10:30:50;;;;;;;3.13;1.30;;;;;;;;;;4974053;28;20038;-81
2021/04/12 10:33:21;;;;;;;2.30;0.50;;;;;;;;;;4972869;28;20129;-79
2021/04/12 10:35:51;;;;;;;2.47;0.60;;;;;;;;;;4974162;28;20050;-84
2021/04/12 10:38:23;;;;;;;0.90;0.55;;;;;;;;;;4972711;28;20058;-82
2021/04/12 10:41:08;;;;;;;2.05;0.70;;;;;;;;;;4974080;28;20068;-82
2021/04/12 10:43:52;;;;;;;2.15;0.45;;;;;;;;;;4973724;28;20518;-82
2021/04/12 10:46:22;;;;;;;3.88;0.63;;;;;;;;;;4973824;28;20062;-81
2021/04/12 10:48:50;;;;;;;1.85;0.40;;;;;;;;;;4969489;28;20051;-81
2021/04/12 10:51:16;;;;;;;1.70;0.60;;;;;;;;;;4944704;28;20058;-81
2021/04/12 10:54:02;;;;;;;1.85;0.45;;;;;;;;;;4970240;28;20486;-81
2021/04/12 10:56:31;;;;;;;1.90;0.52;;;;;;;;;;4969178;28;20502;-81
2021/04/12 10:58:57;;;;;;;1.63;0.50;;;;;;;;;;4953030;29;20050;-80
2021/04/12 11:01:31;;;;;;;2.85;0.75;;;;;;;;;;4969132;28;20044;-80
2021/04/12 11:04:06;;;;;;;2.17;0.60;;;;;;;;;;4969101;28;20043;-81
2021/04/12 11:06:49;;;;;;;2.50;0.63;;;;;;;;;;4952739;29;20035;-81
2021/04/12 11:09:24;;;;;;;2.58;0.47;;;;;;;;;;4954159;29;20050;-81
2021/04/12 11:11:57;;;;;;;1.67;0.73;;;;;;;;;;4953065;29;20126;-81
2021/04/12 11:14:30;;;;;;;2.90;0.65;;;;;;;;;;4953074;29;20073;-83
2021/04/12 11:17:16;;;;;;;2.42;0.63;;;;;;;;;;4967901;28;20415;-81
2021/04/12 11:19:48;;;;;;;2.30;0.57;;;;;;;;;;4968697;28;20498;-81
2021/04/12 11:22:14;;;;;;;;;;;;;;;;;;4954728;28;20039;-81
2021/04/12 11:24:40;;;;;;;1.98;0.60;;;;;;;;;;4966087;28;20002;-80
2021/04/12 11:27:25;;;;;;;3.30;0.60;;;;;;;;;;4962461;28;20049;-81
2021/04/12 11:30:02;;;;;;;1.73;0.60;;;;;;;;;;4973421;28;20071;-81
2021/04/12 11:32:38;;;;;;;1.63;0.57;;;;;;;;;;4972119;28;20035;-81
2021/04/12 11:35:06;;;;;;;2.30;0.60;;;;;;;;;;4973283;28;20114;-82
2021/04/12 11:37:51;;;;;;;3.03;0.50;;;;;;;;;;4956165;28;20046;-82
2021/04/12 11:40:18;;;;;;;2.13;0.60;;;;;;;;;;4973000;28;20453;-82
2021/04/12 11:42:49;;;;;;;3.63;0.70;;;;;;;;;;4973154;28;20050;-82
2021/04/12 11:45:16;;;;;;;1.05;0.95;;;;;;;;;;4971953;28;20394;-82
2021/04/12 11:47:48;;;;;;;1.92;0.40;;;;;;;;;;4955858;28;20034;-83
2021/04/12 11:50:24;;;;;;;1.67;0.40;;;;;;;;;;4971898;28;20039;-82
2021/04/12 11:53:04;;;;;;;2.85;0.80;;;;;;;;;;4971864;28;20125;-82
2021/04/12 11:55:51;;;;;;;2.28;0.50;;;;;;;;;;4971841;28;20093;-80
2021/04/12 11:58:28;;;;;;;2.80;0.40;;;;;;;;;;4966042;28;20051;-80
2021/04/12 12:01:07;;;;;;;0.63;0.32;;;;;;;;;;4971852;28;20046;-80
2021/04/12 12:03:34;;;;;;;3.33;0.30;;;;;;;;;;4971797;28;20034;-80
2021/04/12 12:06:10;;;;;;;1.98;0.40;;;;;;;;;;4971652;28;20039;-81
2021/04/12 12:08:55;;;;;;;1.80;0.60;;;;;;;;;;4972833;28;20039;-80
2021/04/12 12:11:27;;;;;;;2.60;0.30;;;;;;;;;;4972810;28;20134;-80
2021/04/12 12:14:16;;;;;;;0.57;0.30;;;;;;;;;;4973075;28;20035;-79
2021/04/12 12:16:43;;;;;;;1.40;0.43;;;;;;;;;;4967462;28;20144;-80
2021/04/12 12:19:23;;;;;;;0.82;0.30;;;;;;;;;;4971659;28;20042;-80
2021/04/12 12:21:54;;;;;;;2.35;0.30;;;;;;;;;;4955634;28;20074;-81
2021/04/12 12:24:35;;;;;;;0.80;0.32;;;;;;;;;;4971570;28;20070;-81
2021/04/12 12:27:01;;;;;;;0.98;0.30;;;;;;;;;;4971446;28;20126;-80
2021/04/12 12:29:28;;;;;;;1.30;0.38;;;;;;;;;;4971968;28;20077;-79
2021/04/12 12:32:07;;;;;;;1.58;0.40;;;;;;;;;;4975133;28;20064;-80
2021/04/12 12:34:33;;;;;;;1.13;0.80;;;;;;;;;;4976198;28;20462;-81
2021/04/12 12:37:02;;;;;;;1.27;0.30;;;;;;;;;;4976151;28;20046;-80
2021/04/12 12:39:47;;;;;;;1.33;0.40;;;;;;;;;;4974959;28;20042;-80
2021/04/12 12:42:20;;;;;;;0.95;0.40;;;;;;;;;;4976180;28;20038;-81
2021/04/12 12:44:46;;;;;;;2.42;0.50;;;;;;;;;;4958833;28;20043;-81
2021/04/12 12:47:16;;;;;;;4.57;0.45;;;;;;;;;;4974749;28;20043;-80
2021/04/12 12:49:46;;;;;;;0.77;0.40;;;;;;;;;;4974398;28;20390;-83
2021/04/12 12:52:14;;;;;;;1.83;0.55;;;;;;;;;;4955438;29;20086;-83
2021/04/12 12:54:41;;;;;;;1.23;0.40;;;;;;;;;;4955417;29;20118;-82
2021/04/12 12:57:12;;;;;;;0.52;0.40;;;;;;;;;;4944224;28;20039;-82
2021/04/12 12:59:39;;;;;;;4.03;0.60;;;;;;;;;;4974631;28;20035;-82
2021/04/12 13:02:13;;;;;;;3.72;0.60;;;;;;;;;;4974591;28;20490;-82
2021/04/12 13:04:39;;;;;;;2.38;0.50;;;;;;;;;;4973022;28;20030;-83
2021/04/12 13:07:12;;;;;;;1.75;0.43;;;;;;;;;;4972803;28;20118;-82
2021/04/12 13:09:40;;;;;;;1.67;0.60;;;;;;;;;;4958846;28;20039;-82
2021/04/12 13:12:12;;;;;;;1.35;0.70;;;;;;;;;;4923369;29;20055;-82
2021/04/12 13:14:41;;;;;;;2.75;0.57;;;;;;;;;;4939245;29;20036;-83
2021/04/12 13:17:17;;;;;;;3.97;0.57;;;;;;;;;;4970899;28;20039;-82
2021/04/12 13:19:46;;;;;;;1.42;0.30;;;;;;;;;;4956075;29;20098;-82
2021/04/12 13:22:13;;;;;;;2.65;0.57;;;;;;;;;;4964427;28;20035;-82
2021/04/12 13:24:39;;;;;;;1.30;0.50;;;;;;;;;;4971208;28;20102;-82
2021/04/12 13:27:10;;;;;;;1.42;0.40;;;;;;;;;;4971049;28;20043;-82
2021/04/12 13:29:42;;;;;;;3.67;0.50;;;;;;;;;;4970932;28;20043;-81
2021/04/12 13:32:13;;;;;;;0.73;0.40;;;;;;;;;;4956059;29;20039;-80
2021/04/12 13:34:40;;;;;;;0.90;0.40;;;;;;;;;;4970845;28;20443;-80
2021/04/12 13:37:14;;;;;;;1.08;0.50;;;;;;;;;;4956064;29;20043;-80
2021/04/12 13:39:41;;;;;;;2.38;0.60;;;;;;;;;;4955894;29;20043;-80
2021/04/12 13:42:19;;;;;;;2.40;0.50;;;;;;;;;;4953612;28;20550;-81
2021/04/12 13:44:46;;;;;;;1.60;0.52;;;;;;;;;;4955812;29;20415;-81
2021/04/12 13:47:16;;;;;;;2.22;0.50;;;;;;;;;;4970453;28;20042;-79
2021/04/12 13:49:48;;;;;;;1.48;0.40;;;;;;;;;;4970378;28;20040;-79
2021/04/12 13:52:15;;;;;;;1.58;0.40;;;;;;;;;;4969929;28;20047;-83
2021/04/12 13:54:42;;;;;;;1.05;0.40;;;;;;;;;;4969850;28;20067;-85
2021/04/12 13:57:28;;;;;;;4.93;0.40;;;;;;;;;;4969961;28;20047;-84
2021/04/12 13:59:55;;;;;;;0.30;0.30;;;;;;;;;;4947594;29;20475;-84
2021/04/12 14:02:26;;;;;;;2.13;0.50;;;;;;;;;;4953838;29;20126;-84
2021/04/12 14:04:54;;;;;;;1.30;0.40;;;;;;;;;;4953966;29;20078;-84
2021/04/12 14:07:39;;;;;;;0.85;0.40;;;;;;;;;;4969599;28;20118;-84
2021/04/12 14:10:17;;;;;;;2.25;1.10;;;;;;;;;;4954834;29;20051;-84
2021/04/12 14:12:49;;;;;;;1.35;0.40;;;;;;;;;;4955028;29;20042;-83
2021/04/12 14:15:16;;;;;;;1.45;0.47;;;;;;;;;;4953645;29;20497;-82
2021/04/12 14:17:47;;;;;;;1.05;0.50;;;;;;;;;;4953619;29;20047;-84
2021/04/12 14:20:15;;;;;;;2.20;0.43;;;;;;;;;;4969219;28;20050;-83
2021/04/12 14:22:50;;;;;;;1.10;0.40;;;;;;;;;;4969423;28;20054;-84
2021/04/12 14:25:27;;;;;;;1.27;0.40;;;;;;;;;;4969207;28;20057;-85
2021/04/12 14:28:03;;;;;;;1.13;0.40;;;;;;;;;;4953263;29;20062;-85
2021/04/12 14:30:29;;;;;;;0.63;0.40;;;;;;;;;;4953469;29;20035;-85
2021/04/12 14:33:00;;;;;;;1.85;0.40;;;;;;;;;;4969320;28;20039;-85
2021/04/12 14:35:28;;;;;;;2.58;0.60;;;;;;;;;;4969419;28;20094;-85
2021/04/12 14:37:55;;;;;;;1.95;0.50;;;;;;;;;;4953258;29;20483;-84
2021/04/12 14:40:26;;;;;;;3.75;0.55;;;;;;;;;;4969192;28;20039;-84
2021/04/12 14:42:58;;;;;;;1.67;0.30;;;;;;;;;;4953139;29;20109;-84
2021/04/12 14:45:34;;;;;;;2.58;0.55;;;;;;;;;;4953136;29;20110;-83
2021/04/12 14:48:11;;;;;;;0.30;0.30;;;;;;;;;;4952905;29;20538;-82
2021/04/12 14:50:37;;;;;;;1.00;0.65;;;;;;;;;;4969029;28;20118;-83
2021/04/12 14:53:08;;;;;;;2.72;0.40;;;;;;;;;;4968591;28;20561;-83
2021/04/12 14:55:34;;;;;;;1.73;0.77;;;;;;;;;;4954348;29;20395;-82
2021/04/12 14:58:07;;;;;;;3.45;0.60;;;;;;;;;;4953922;29;20047;-82
2021/04/12 15:00:40;;;;;;;2.45;0.50;;;;;;;;;;4953221;29;20410;-82
2021/04/12 15:03:10;;;;;;;4.32;0.60;;;;;;;;;;4969020;28;20039;-81
2021/04/12 15:05:41;;;;;;;3.17;0.63;;;;;;;;;;4954006;29;20086;-82
2021/04/12 15:08:12;;;;;;;2.88;0.60;;;;;;;;;;4952564;29;20047;-79
2021/04/12 15:10:39;;;;;;;2.20;0.45;;;;;;;;;;4952849;29;20486;-81
2021/04/12 15:13:10;;;;;;;4.40;0.80;;;;;;;;;;4968914;28;20054;-80
2021/04/12 15:15:38;;;;;;;1.10;0.40;;;;;;;;;;4952977;29;20090;-81
2021/04/12 15:18:40;;;;;;;3.03;0.85;;;;;;;;;;4968144;28;20130;-81
2021/04/12 15:21:17;;;;;;;3.53;0.70;;;;;;;;;;4941198;28;20054;-81
2021/04/12 15:23:44;;;;;;;1.77;0.50;;;;;;;;;;4972595;28;20492;-81
2021/04/12 15:26:21;;;;;;;2.20;0.60;;;;;;;;;;4956135;28;20407;-81
2021/04/12 15:28:47;;;;;;;1.58;0.70;;;;;;;;;;4971746;28;20047;-82
2021/04/12 15:34:13;;;;;;;3.97;0.70;;;;;;;;;;4959798;28;20051;-81
2021/04/12 15:36:49;;;;;;;2.03;0.55;;;;;;;;;;4973611;28;20074;-81